Terminal Aerodrome Forecast
Issued by NWS

Home | Current Version | Previous Version | Text Only | Print | Product List | Glossary On
Versions: 1 2 3 4 5 6 7 8 9 10 11 12 13
000
FTUS45 KREV 281845 RRA
TAFMMH
TAF
KMMH 281845Z 2819/2918 VRB03KT P6SM SKC
     FM282000 11007KT P6SM SKC
     FM290000 27010G19KT P6SM SKC
     FM290400 VRB03KT P6SM SKC=

USA.gov is the U.S. government's official web portal to all federal, state and local government web resources and services.